createdAt,value
2017-09-08T00:01:02.211Z,0
2017-09-08T00:02:10.807Z,0
2017-09-08T00:03:19.407Z,0
2017-09-08T00:04:28.005Z,0
2017-09-08T00:05:36.602Z,0
2017-09-08T00:06:45.199Z,0
2017-09-08T00:07:54.111Z,0
2017-09-08T00:09:02.710Z,0
2017-09-08T00:10:11.307Z,0
2017-09-08T00:11:19.900Z,0
2017-09-08T00:12:28.500Z,0
2017-09-08T00:13:37.097Z,0
2017-09-08T00:14:45.998Z,0
2017-09-08T00:15:54.594Z,0
2017-09-08T00:17:03.189Z,0
2017-09-08T00:18:11.785Z,0
2017-09-08T00:19:20.383Z,0
2017-09-08T00:20:28.977Z,0
2017-09-08T00:21:37.575Z,0
2017-09-08T00:22:46.170Z,0
2017-09-08T00:23:54.768Z,0
2017-09-08T00:25:03.366Z,0
2017-09-08T00:26:11.968Z,0
2017-09-08T00:27:20.566Z,0
2017-09-08T00:28:29.164Z,0
2017-09-08T00:29:37.763Z,0
2017-09-08T00:30:46.361Z,0
2017-09-08T00:31:54.963Z,0
2017-09-08T00:33:03.563Z,0
2017-09-08T00:34:12.160Z,0
2017-09-08T00:35:21.059Z,0
2017-09-08T00:36:29.655Z,0
2017-09-08T00:37:38.254Z,0
2017-09-08T00:38:46.853Z,0
2017-09-08T00:39:55.453Z,0
2017-09-08T00:41:04.048Z,0
2017-09-08T00:42:12.644Z,0
2017-09-08T00:43:21.242Z,0
2017-09-08T00:44:29.840Z,0
2017-09-08T00:45:38.744Z,0
2017-09-08T00:46:47.342Z,0
2017-09-08T00:47:55.942Z,0
2017-09-08T00:49:04.542Z,0
2017-09-08T00:50:13.145Z,0
2017-09-08T00:51:21.748Z,0
2017-09-08T00:52:30.345Z,0
2017-09-08T00:53:38.945Z,0
2017-09-08T00:54:47.542Z,0
2017-09-08T00:55:56.138Z,0
2017-09-08T00:57:04.737Z,0
2017-09-08T00:58:13.332Z,0
2017-09-08T00:59:21.929Z,0
2017-09-08T01:00:30.527Z,0
2017-09-08T01:01:39.433Z,0
2017-09-08T01:02:48.027Z,0
2017-09-08T01:03:56.627Z,0
2017-09-08T01:05:05.228Z,0
2017-09-08T01:06:14.132Z,0
2017-09-08T01:07:23.036Z,0
2017-09-08T01:08:31.637Z,0
2017-09-08T01:09:40.239Z,0
2017-09-08T01:10:48.839Z,0
2017-09-08T01:11:57.437Z,0
2017-09-08T01:13:06.036Z,0
2017-09-08T01:14:14.636Z,0
2017-09-08T01:15:23.240Z,0
2017-09-08T01:16:31.839Z,0
2017-09-08T01:17:40.443Z,0
2017-09-08T01:18:49.047Z,0
2017-09-08T01:19:57.646Z,0
2017-09-08T01:21:06.246Z,0
2017-09-08T01:22:14.843Z,0
2017-09-08T01:23:23.441Z,0
2017-09-08T01:24:32.038Z,0
2017-09-08T01:25:40.637Z,0
2017-09-08T01:26:49.236Z,0
2017-09-08T01:27:57.841Z,0
2017-09-08T01:29:06.471Z,0
2017-09-08T01:30:15.039Z,0
2017-09-08T01:31:23.641Z,0
2017-09-08T01:32:32.244Z,0
2017-09-08T01:33:40.843Z,0
2017-09-08T01:34:49.441Z,0
2017-09-08T01:35:58.039Z,0
2017-09-08T01:37:06.637Z,0
2017-09-08T01:38:15.236Z,0
2017-09-08T01:39:23.835Z,0
2017-09-08T01:40:32.434Z,0
2017-09-08T01:41:41.033Z,0
2017-09-08T01:42:49.632Z,0
2017-09-08T01:43:58.239Z,0
2017-09-08T01:45:06.833Z,0
2017-09-08T01:46:15.431Z,0
2017-09-08T01:47:24.342Z,0
2017-09-08T01:48:32.939Z,0
2017-09-08T01:49:41.539Z,0
2017-09-08T01:50:50.447Z,0
2017-09-08T01:51:59.051Z,0
2017-09-08T01:53:07.653Z,0
2017-09-08T01:54:16.251Z,0
2017-09-08T01:55:24.849Z,0
2017-09-08T01:56:33.448Z,0
2017-09-08T01:57:42.047Z,0
2017-09-08T01:58:50.646Z,0
2017-09-08T01:59:59.244Z,0
2017-09-08T02:01:08.148Z,0
2017-09-08T02:02:16.748Z,0
2017-09-08T02:03:25.349Z,0
2017-09-08T02:04:33.949Z,0
2017-09-08T02:05:42.551Z,0
2017-09-08T02:06:51.150Z,0
2017-09-08T02:07:59.748Z,0
2017-09-08T02:09:08.660Z,0
2017-09-08T02:10:17.264Z,0
2017-09-08T02:11:25.862Z,0
2017-09-08T02:12:34.462Z,0
2017-09-08T02:13:43.062Z,0
2017-09-08T02:14:51.662Z,0
2017-09-08T02:16:00.268Z,0
2017-09-08T02:17:08.870Z,0
2017-09-08T02:18:17.466Z,0
2017-09-08T02:19:26.065Z,0
2017-09-08T02:20:34.661Z,0
2017-09-08T02:21:43.566Z,0
2017-09-08T02:22:52.163Z,0
2017-09-08T02:24:00.762Z,0
2017-09-08T02:25:09.363Z,0
2017-09-08T02:26:17.964Z,0
2017-09-08T02:27:26.873Z,0
2017-09-08T02:28:35.473Z,0
2017-09-08T02:29:44.071Z,0
2017-09-08T02:30:52.668Z,0
2017-09-08T02:32:01.268Z,0
2017-09-08T02:33:09.863Z,0
2017-09-08T02:34:18.460Z,0
2017-09-08T02:35:27.059Z,0
2017-09-08T02:36:35.659Z,0
2017-09-08T02:37:44.259Z,0
2017-09-08T02:38:52.859Z,0
2017-09-08T02:40:01.460Z,0
2017-09-08T02:41:10.668Z,0
2017-09-08T02:42:19.266Z,0
2017-09-08T02:43:27.860Z,0
2017-09-08T02:44:36.458Z,0
2017-09-08T02:45:45.058Z,0
2017-09-08T02:46:53.656Z,0
2017-09-08T02:48:02.256Z,0
2017-09-08T02:49:10.855Z,0
2017-09-08T02:50:19.454Z,0
2017-09-08T02:51:28.054Z,0
2017-09-08T02:52:36.653Z,0
2017-09-08T02:53:45.252Z,0
2017-09-08T02:54:53.850Z,0
2017-09-08T02:56:02.450Z,0
2017-09-08T02:57:11.047Z,0
2017-09-08T02:58:19.646Z,0
2017-09-08T02:59:28.244Z,0
2017-09-08T03:00:36.843Z,0
2017-09-08T03:01:45.442Z,0
2017-09-08T03:02:54.041Z,0
2017-09-08T03:04:02.639Z,0
2017-09-08T03:05:11.543Z,0
2017-09-08T03:06:20.144Z,0
2017-09-08T03:07:28.741Z,0
2017-09-08T03:08:37.338Z,0
2017-09-08T03:09:45.935Z,0
2017-09-08T03:10:54.534Z,0
2017-09-08T03:12:03.134Z,0
2017-09-08T03:13:12.344Z,0
2017-09-08T03:14:20.940Z,0
2017-09-08T03:15:29.542Z,0
2017-09-08T03:16:38.139Z,0
2017-09-08T03:17:46.738Z,0
2017-09-08T03:18:55.338Z,0
2017-09-08T03:20:03.938Z,0
2017-09-08T03:21:12.535Z,0
2017-09-08T03:22:21.133Z,0
2017-09-08T03:23:29.730Z,0
2017-09-08T03:24:38.329Z,0
2017-09-08T03:25:46.928Z,0
2017-09-08T03:26:55.525Z,0
2017-09-08T03:28:04.124Z,0
2017-09-08T03:29:12.722Z,0
2017-09-08T03:30:21.323Z,0
2017-09-08T03:31:29.925Z,0
2017-09-08T03:32:38.524Z,0
2017-09-08T03:33:47.124Z,0
2017-09-08T03:34:55.721Z,0
2017-09-08T03:36:04.320Z,0
2017-09-08T03:37:12.920Z,0
2017-09-08T03:38:21.518Z,0
2017-09-08T03:39:30.118Z,0
2017-09-08T03:40:38.719Z,0
2017-09-08T03:41:47.318Z,0
2017-09-08T03:42:55.915Z,0
2017-09-08T03:44:04.515Z,0
2017-09-08T03:45:13.114Z,0
2017-09-08T03:46:21.717Z,0
2017-09-08T03:47:30.315Z,0
2017-09-08T03:48:38.912Z,0
2017-09-08T03:49:47.512Z,0
2017-09-08T03:50:56.113Z,0
2017-09-08T03:52:04.705Z,0
2017-09-08T03:53:13.306Z,0
2017-09-08T03:54:21.908Z,0
2017-09-08T03:55:30.508Z,0
2017-09-08T03:56:39.105Z,0
2017-09-08T03:57:47.705Z,0
2017-09-08T03:58:56.304Z,0
2017-09-08T04:00:04.903Z,0
2017-09-08T04:01:13.501Z,0
2017-09-08T04:02:22.100Z,0
2017-09-08T04:03:30.698Z,0
2017-09-08T04:04:39.603Z,0
2017-09-08T04:05:48.198Z,0
2017-09-08T04:06:56.795Z,0
2017-09-08T04:08:05.395Z,0
2017-09-08T04:09:13.994Z,0
2017-09-08T04:10:22.598Z,0
2017-09-08T04:11:31.197Z,0
2017-09-08T04:12:39.795Z,0
2017-09-08T04:13:48.401Z,0
2017-09-08T04:14:57.001Z,0
2017-09-08T04:16:05.600Z,0
2017-09-08T04:17:14.198Z,0
2017-09-08T04:18:22.794Z,0
2017-09-08T04:19:31.392Z,0
2017-09-08T04:20:39.992Z,0
2017-09-08T04:21:48.587Z,0
2017-09-08T04:22:57.186Z,0
2017-09-08T04:24:05.786Z,0
2017-09-08T04:25:14.383Z,0
2017-09-08T04:26:22.985Z,0
2017-09-08T04:27:31.586Z,0
2017-09-08T04:28:40.187Z,0
2017-09-08T04:29:48.788Z,0
2017-09-08T04:30:57.390Z,0
2017-09-08T04:32:05.990Z,0
2017-09-08T04:33:14.591Z,0
2017-09-08T04:34:23.189Z,0
2017-09-08T04:35:31.795Z,0
2017-09-08T04:36:40.393Z,0
2017-09-08T04:37:48.993Z,0
2017-09-08T04:38:57.592Z,0
2017-09-08T04:40:06.190Z,0
2017-09-08T04:41:14.788Z,0
2017-09-08T04:42:23.388Z,0
2017-09-08T04:43:31.984Z,0
2017-09-08T04:44:40.586Z,0
2017-09-08T04:45:49.183Z,0
2017-09-08T04:46:57.782Z,0
2017-09-08T04:48:06.381Z,4
2017-09-08T04:49:14.983Z,4
2017-09-08T04:50:23.584Z,4
2017-09-08T04:51:32.187Z,0
2017-09-08T04:52:40.787Z,4
2017-09-08T04:53:49.389Z,4
2017-09-08T04:54:57.987Z,4
2017-09-08T04:56:06.603Z,4
2017-09-08T04:57:15.201Z,4
2017-09-08T04:58:23.804Z,8
2017-09-08T04:59:32.407Z,4
2017-09-08T05:00:41.007Z,8
2017-09-08T05:01:49.604Z,8
2017-09-08T05:02:58.209Z,8
2017-09-08T05:04:06.809Z,8
2017-09-08T05:05:15.410Z,12
2017-09-08T05:06:24.008Z,12
2017-09-08T05:07:32.614Z,12
2017-09-08T05:08:41.208Z,16
2017-09-08T05:09:49.807Z,16
2017-09-08T05:10:58.409Z,20
2017-09-08T05:12:07.010Z,20
2017-09-08T05:13:15.610Z,24
2017-09-08T05:14:24.210Z,24
2017-09-08T05:15:32.811Z,24
2017-09-08T05:16:41.413Z,24
2017-09-08T05:17:50.009Z,28
2017-09-08T05:18:58.909Z,32
2017-09-08T05:20:07.507Z,36
2017-09-08T05:21:16.106Z,36
2017-09-08T05:22:24.738Z,40
2017-09-08T05:23:33.305Z,44
2017-09-08T05:24:41.907Z,44
2017-09-08T05:25:50.513Z,52
2017-09-08T05:26:59.113Z,60
2017-09-08T05:28:07.712Z,60
2017-09-08T05:29:16.315Z,60
2017-09-08T05:30:24.914Z,60
2017-09-08T05:31:33.514Z,68
2017-09-08T05:32:42.116Z,68
2017-09-08T05:33:50.719Z,72
2017-09-08T05:34:59.320Z,68
2017-09-08T05:36:07.918Z,64
2017-09-08T05:37:16.519Z,64
2017-09-08T05:38:25.422Z,64
2017-09-08T05:39:34.019Z,68
2017-09-08T05:40:42.618Z,72
2017-09-08T05:41:51.218Z,68
2017-09-08T05:42:59.820Z,60
2017-09-08T05:44:08.418Z,60
2017-09-08T05:45:17.017Z,68
2017-09-08T05:46:25.615Z,76
2017-09-08T05:47:34.217Z,84
2017-09-08T05:48:42.817Z,84
2017-09-08T05:49:51.415Z,84
2017-09-08T05:51:00.015Z,96
2017-09-08T05:52:08.620Z,112
2017-09-08T05:53:17.215Z,132
2017-09-08T05:54:25.815Z,160
2017-09-08T05:55:34.417Z,176
2017-09-08T05:56:43.018Z,160
2017-09-08T05:57:51.619Z,164
2017-09-08T05:59:00.219Z,168
2017-09-08T06:00:08.822Z,176
2017-09-08T06:01:17.421Z,188
2017-09-08T06:02:26.329Z,192
2017-09-08T06:03:34.928Z,196
2017-09-08T06:04:43.529Z,216
2017-09-08T06:05:52.128Z,188
2017-09-08T06:07:00.728Z,156
2017-09-08T06:08:09.328Z,140
2017-09-08T06:09:17.924Z,128
2017-09-08T06:10:26.521Z,132
2017-09-08T06:11:35.121Z,132
2017-09-08T06:12:43.717Z,128
2017-09-08T06:13:52.315Z,128
2017-09-08T06:15:00.915Z,132
2017-09-08T06:16:09.512Z,140
2017-09-08T06:17:18.113Z,152
2017-09-08T06:18:26.714Z,148
2017-09-08T06:19:35.311Z,148
2017-09-08T06:20:43.908Z,156
2017-09-08T06:21:52.506Z,156
2017-09-08T06:23:01.102Z,160
2017-09-08T06:24:09.698Z,152
2017-09-08T06:25:18.299Z,144
2017-09-08T06:26:26.896Z,152
2017-09-08T06:27:35.494Z,152
2017-09-08T06:28:44.093Z,152
2017-09-08T06:29:52.691Z,164
2017-09-08T06:31:01.290Z,168
2017-09-08T06:32:09.889Z,160
2017-09-08T06:33:18.490Z,164
2017-09-08T06:34:27.088Z,176
2017-09-08T06:35:35.685Z,176
2017-09-08T06:36:44.286Z,184
2017-09-08T06:37:53.189Z,200
2017-09-08T06:39:01.791Z,212
2017-09-08T06:40:10.390Z,232
2017-09-08T06:41:18.987Z,240
2017-09-08T06:42:27.586Z,240
2017-09-08T06:43:36.185Z,260
2017-09-08T06:44:44.852Z,244
2017-09-08T06:45:53.483Z,244
2017-09-08T06:47:02.082Z,188
2017-09-08T06:48:10.680Z,176
2017-09-08T06:49:19.282Z,192
2017-09-08T06:50:27.877Z,188
2017-09-08T06:51:36.476Z,188
2017-09-08T06:52:45.075Z,216
2017-09-08T06:53:53.673Z,252
2017-09-08T06:55:02.273Z,248
2017-09-08T06:56:10.873Z,188
2017-09-08T06:57:19.472Z,148
2017-09-08T06:58:28.071Z,128
2017-09-08T06:59:36.668Z,124
2017-09-08T07:00:45.270Z,128
2017-09-08T07:01:53.867Z,124
2017-09-08T07:03:02.464Z,108
2017-09-08T07:04:11.067Z,96
2017-09-08T07:05:19.666Z,92
2017-09-08T07:06:28.264Z,96
2017-09-08T07:07:36.868Z,100
2017-09-08T07:08:45.464Z,92
2017-09-08T07:09:54.065Z,96
2017-09-08T07:11:02.663Z,84
2017-09-08T07:12:11.505Z,96
2017-09-08T07:13:20.104Z,112
2017-09-08T07:14:28.705Z,108
2017-09-08T07:15:37.304Z,104
2017-09-08T07:16:45.904Z,124
2017-09-08T07:17:54.499Z,128
2017-09-08T07:19:03.099Z,180
2017-09-08T07:20:11.700Z,204
2017-09-08T07:21:20.297Z,232
2017-09-08T07:22:28.897Z,240
2017-09-08T07:23:37.498Z,252
2017-09-08T07:24:46.098Z,260
2017-09-08T07:25:54.697Z,292
2017-09-08T07:27:03.303Z,292
2017-09-08T07:28:11.901Z,300
2017-09-08T07:29:20.502Z,248
2017-09-08T07:30:29.104Z,220
2017-09-08T07:31:37.704Z,208
2017-09-08T07:32:46.312Z,204
2017-09-08T07:33:55.219Z,216
2017-09-08T07:35:03.862Z,220
2017-09-08T07:36:12.466Z,228
2017-09-08T07:37:21.133Z,196
2017-09-08T07:38:29.752Z,164
2017-09-08T07:39:38.354Z,176
2017-09-08T07:40:46.955Z,180
2017-09-08T07:41:55.575Z,192
2017-09-08T07:43:04.195Z,208
2017-09-08T07:44:12.791Z,184
2017-09-08T07:45:21.422Z,200
2017-09-08T07:46:30.023Z,228
2017-09-08T07:47:38.625Z,272
2017-09-08T07:48:47.227Z,320
2017-09-08T07:49:55.823Z,392
2017-09-08T07:51:04.422Z,524
2017-09-08T07:52:13.023Z,808
2017-09-08T07:53:21.630Z,1096
2017-09-08T07:54:30.223Z,1228
2017-09-08T07:55:38.822Z,1256
2017-09-08T07:56:47.420Z,1116
2017-09-08T07:57:56.024Z,924
2017-09-08T07:59:04.622Z,804
2017-09-08T08:00:13.223Z,736
2017-09-08T08:01:21.820Z,848
2017-09-08T08:02:30.535Z,936
2017-09-08T08:03:39.135Z,996
2017-09-08T08:04:47.818Z,956
2017-09-08T08:05:56.434Z,808
2017-09-08T08:07:05.033Z,764
2017-09-08T08:08:13.975Z,756
2017-09-08T08:09:22.587Z,720
2017-09-08T08:10:31.199Z,704
2017-09-08T08:11:39.877Z,728
2017-09-08T08:12:48.532Z,688
2017-09-08T08:13:57.134Z,592
2017-09-08T08:15:05.736Z,668
2017-09-08T08:16:14.333Z,616
2017-09-08T08:17:22.934Z,600
2017-09-08T08:18:31.533Z,624
2017-09-08T08:19:40.135Z,584
2017-09-08T08:20:48.736Z,620
2017-09-08T08:21:57.337Z,608
2017-09-08T08:23:05.937Z,604
2017-09-08T08:24:14.536Z,624
2017-09-08T08:25:23.135Z,596
2017-09-08T08:26:31.747Z,548
2017-09-08T08:27:40.352Z,536
2017-09-08T08:28:48.952Z,536
2017-09-08T08:29:57.552Z,532
2017-09-08T08:31:06.150Z,536
2017-09-08T08:32:14.754Z,588
2017-09-08T08:33:23.356Z,616
2017-09-08T08:34:32.007Z,644
2017-09-08T08:35:40.604Z,628
2017-09-08T08:36:49.206Z,680
2017-09-08T08:37:58.115Z,672
2017-09-08T08:39:07.019Z,648
2017-09-08T08:40:15.615Z,564
2017-09-08T08:41:24.217Z,456
2017-09-08T08:42:33.120Z,436
2017-09-08T08:43:41.720Z,412
2017-09-08T08:44:50.630Z,444
2017-09-08T08:45:59.229Z,472
2017-09-08T08:47:07.836Z,524
2017-09-08T08:48:16.438Z,536
2017-09-08T08:49:25.038Z,468
2017-09-08T08:50:33.637Z,456
2017-09-08T08:51:42.235Z,564
2017-09-08T08:52:50.834Z,596
2017-09-08T08:53:59.432Z,576
2017-09-08T08:55:08.041Z,644
2017-09-08T08:56:16.640Z,624
2017-09-08T08:57:25.237Z,656
2017-09-08T08:58:33.837Z,728
2017-09-08T08:59:42.439Z,780
2017-09-08T09:00:51.039Z,700
2017-09-08T09:01:59.638Z,652
2017-09-08T09:03:08.267Z,592
2017-09-08T09:04:16.902Z,616
2017-09-08T09:05:25.469Z,656
2017-09-08T09:06:34.072Z,640
2017-09-08T09:07:42.668Z,680
2017-09-08T09:08:51.266Z,676
2017-09-08T09:09:59.869Z,632
2017-09-08T09:11:08.468Z,644
2017-09-08T09:12:17.067Z,652
2017-09-08T09:13:25.670Z,692
2017-09-08T09:14:34.384Z,700
2017-09-08T09:15:42.984Z,664
2017-09-08T09:16:51.584Z,740
2017-09-08T09:18:00.183Z,760
2017-09-08T09:19:08.788Z,780
2017-09-08T09:20:17.398Z,820
2017-09-08T09:21:26.000Z,872
2017-09-08T09:22:34.604Z,900
2017-09-08T09:23:43.510Z,936
2017-09-08T09:24:52.108Z,936
2017-09-08T09:26:00.711Z,936
2017-09-08T09:27:09.619Z,972
2017-09-08T09:28:18.219Z,1020
2017-09-08T09:29:27.138Z,1064
2017-09-08T09:30:35.735Z,1096
2017-09-08T09:31:44.345Z,1100
2017-09-08T09:32:53.261Z,1092
2017-09-08T09:34:01.861Z,1080
2017-09-08T09:35:10.462Z,1084
2017-09-08T09:36:19.064Z,1020
2017-09-08T09:37:27.666Z,912
2017-09-08T09:38:36.270Z,852
2017-09-08T09:39:44.869Z,784
2017-09-08T09:40:53.472Z,748
2017-09-08T09:42:02.072Z,656
2017-09-08T09:43:10.672Z,528
2017-09-08T09:44:19.269Z,496
2017-09-08T09:45:27.868Z,524
2017-09-08T09:46:36.470Z,644
2017-09-08T09:47:45.074Z,744
2017-09-08T09:48:53.674Z,780
2017-09-08T09:50:02.583Z,824
2017-09-08T09:51:11.181Z,872
2017-09-08T09:52:19.781Z,960
2017-09-08T09:53:28.382Z,1048
2017-09-08T09:54:36.982Z,1084
2017-09-08T09:55:45.580Z,1240
2017-09-08T09:56:54.179Z,1168
2017-09-08T09:58:02.775Z,1144
2017-09-08T09:59:11.374Z,1036
2017-09-08T10:00:19.972Z,1024
2017-09-08T10:01:28.574Z,948
2017-09-08T10:02:37.172Z,936
2017-09-08T10:03:45.773Z,952
2017-09-08T10:04:54.375Z,956
2017-09-08T10:06:02.970Z,968
2017-09-08T10:07:11.571Z,992
2017-09-08T10:08:20.173Z,984
2017-09-08T10:09:28.775Z,784
2017-09-08T10:10:37.378Z,700
2017-09-08T10:11:45.978Z,684
2017-09-08T10:12:54.578Z,640
2017-09-08T10:14:03.181Z,624
2017-09-08T10:15:11.781Z,556
2017-09-08T10:16:20.385Z,548
2017-09-08T10:17:28.988Z,560
2017-09-08T10:18:37.591Z,600
2017-09-08T10:19:46.495Z,692
2017-09-08T10:20:55.096Z,772
2017-09-08T10:22:03.693Z,644
2017-09-08T10:23:12.296Z,596
2017-09-08T10:24:20.897Z,668
2017-09-08T10:25:29.804Z,712
2017-09-08T10:26:38.404Z,828
2017-09-08T10:27:47.005Z,804
2017-09-08T10:28:55.605Z,808
2017-09-08T10:30:04.206Z,780
2017-09-08T10:31:12.804Z,612
2017-09-08T10:32:21.408Z,548
2017-09-08T10:33:30.313Z,612
2017-09-08T10:34:38.914Z,636
2017-09-08T10:35:47.517Z,900
2017-09-08T10:36:56.118Z,784
2017-09-08T10:38:05.027Z,648
2017-09-08T10:39:13.624Z,648
2017-09-08T10:40:22.223Z,620
2017-09-08T10:41:30.822Z,668
2017-09-08T10:42:39.428Z,708
2017-09-08T10:43:48.342Z,596
2017-09-08T10:44:56.944Z,632
2017-09-08T10:46:05.547Z,628
2017-09-08T10:47:14.146Z,524
2017-09-08T10:48:22.746Z,524
2017-09-08T10:49:31.347Z,588
2017-09-08T10:50:39.948Z,612
2017-09-08T10:51:48.549Z,648
2017-09-08T10:52:57.152Z,676
2017-09-08T10:54:05.753Z,640
2017-09-08T10:55:14.353Z,676
2017-09-08T10:56:22.957Z,696
2017-09-08T10:57:31.559Z,636
2017-09-08T10:58:40.160Z,664
2017-09-08T10:59:48.761Z,676
2017-09-08T11:00:57.365Z,660
2017-09-08T11:02:05.965Z,608
2017-09-08T11:03:14.567Z,676
2017-09-08T11:04:23.169Z,616
2017-09-08T11:05:31.770Z,636
2017-09-08T11:06:40.370Z,624
2017-09-08T11:07:48.970Z,564
2017-09-08T11:08:57.571Z,528
2017-09-08T11:10:06.172Z,636
2017-09-08T11:11:14.775Z,540
2017-09-08T11:12:23.374Z,532
2017-09-08T11:13:31.975Z,548
2017-09-08T11:14:40.576Z,468
2017-09-08T11:15:49.175Z,460
2017-09-08T11:16:57.775Z,496
2017-09-08T11:18:06.378Z,468
2017-09-08T11:19:15.282Z,460
2017-09-08T11:20:23.884Z,404
2017-09-08T11:21:32.481Z,376
2017-09-08T11:22:41.080Z,372
2017-09-08T11:23:49.680Z,348
2017-09-08T11:24:58.283Z,320
2017-09-08T11:26:06.881Z,336
2017-09-08T11:27:15.478Z,340
2017-09-08T11:28:24.075Z,384
2017-09-08T11:29:32.674Z,360
2017-09-08T11:30:41.271Z,324
2017-09-08T17:37:52.890Z,8
2017-09-08T17:39:02.224Z,4
2017-09-08T17:40:11.244Z,4
2017-09-08T17:41:20.263Z,4
2017-09-08T17:42:28.960Z,4
2017-09-08T17:43:38.036Z,4
2017-09-08T17:44:48.423Z,4
2017-09-08T17:45:59.105Z,4
2017-09-08T17:47:08.878Z,4
2017-09-08T17:48:18.650Z,4
2017-09-08T17:49:27.905Z,4
2017-09-08T17:50:38.279Z,0
2017-09-08T17:51:47.463Z,0
2017-09-08T17:52:56.888Z,4
2017-09-08T17:54:06.435Z,4
2017-09-08T17:55:16.111Z,4
2017-09-08T17:56:25.771Z,0
2017-09-08T17:57:35.109Z,4
2017-09-08T17:58:44.124Z,0
2017-09-08T17:59:52.822Z,0
2017-09-08T18:01:01.839Z,0
2017-09-08T18:02:11.818Z,0
2017-09-08T18:03:20.513Z,4
2017-09-08T18:04:29.533Z,0
2017-09-08T18:05:38.551Z,0
2017-09-08T18:06:47.704Z,0
2017-09-08T18:07:57.039Z,0
2017-09-08T18:09:06.456Z,0
2017-09-08T18:10:15.152Z,0
2017-09-08T18:11:23.849Z,0
2017-09-08T18:12:32.866Z,0
2017-09-08T18:13:42.205Z,0
2017-09-08T18:14:51.546Z,0
2017-09-08T18:16:00.240Z,0
2017-09-08T18:17:09.896Z,0
2017-09-08T18:18:19.868Z,0
2017-09-08T18:19:29.519Z,0
2017-09-08T18:20:38.860Z,0
2017-09-08T18:21:48.515Z,0
2017-09-08T18:22:57.209Z,0
2017-09-08T18:24:06.547Z,0
2017-09-08T18:25:15.562Z,0
2017-09-08T18:26:24.257Z,0
2017-09-08T18:27:33.274Z,0
2017-09-08T18:28:41.970Z,0
2017-09-08T18:29:50.986Z,0
2017-09-08T18:30:59.682Z,0
2017-09-08T18:32:09.026Z,0
2017-09-08T18:33:18.045Z,0
2017-09-08T18:34:27.061Z,0
2017-09-08T18:35:36.398Z,0
2017-09-08T18:36:45.419Z,0
2017-09-08T18:37:54.116Z,0
2017-09-08T18:39:03.134Z,0
2017-09-08T18:40:12.471Z,0
2017-09-08T18:41:21.487Z,0
2017-09-08T18:42:30.191Z,0
2017-09-08T18:43:39.532Z,0
2017-09-08T18:44:49.186Z,0
2017-09-08T18:45:58.524Z,0
2017-09-08T18:47:07.866Z,0
2017-09-08T18:48:17.201Z,0
2017-09-08T18:49:26.857Z,0
2017-09-08T18:50:36.510Z,0
2017-09-08T18:51:45.535Z,0
2017-09-08T18:52:55.509Z,0
2017-09-08T18:54:04.525Z,0
2017-09-08T18:55:13.549Z,0
2017-09-08T18:56:22.886Z,0
2017-09-08T18:57:31.903Z,0
2017-09-08T18:58:40.918Z,0
2017-09-08T18:59:50.252Z,0
2017-09-08T19:00:59.267Z,0
2017-09-08T19:02:08.603Z,0
2017-09-08T19:03:17.943Z,0
2017-09-08T19:04:27.281Z,0
2017-09-08T19:05:36.296Z,0
2017-09-08T19:06:45.312Z,0
2017-09-08T19:07:54.331Z,0
2017-09-08T19:09:03.671Z,0
2017-09-08T19:10:13.328Z,0
2017-09-08T19:11:22.663Z,0
2017-09-08T19:12:32.005Z,0
2017-09-08T19:13:40.701Z,0
2017-09-08T19:14:49.399Z,0
2017-09-08T19:15:58.416Z,0
2017-09-08T19:17:07.430Z,0
2017-09-08T19:18:16.765Z,0
2017-09-08T19:19:25.784Z,0
2017-09-08T19:20:34.799Z,0
2017-09-08T19:21:44.133Z,0
2017-09-08T19:22:52.830Z,0
2017-09-08T19:24:02.170Z,0
2017-09-08T19:25:11.187Z,0
2017-09-08T19:26:20.209Z,0
2017-09-08T19:27:29.544Z,0
2017-09-08T19:28:38.877Z,0
2017-09-08T19:29:47.892Z,0
2017-09-08T19:30:57.232Z,0
2017-09-08T19:32:06.595Z,0
2017-09-08T19:33:15.929Z,0
2017-09-08T19:34:24.946Z,0
2017-09-08T19:35:34.282Z,0
2017-09-08T19:36:43.303Z,0
2017-09-08T19:37:52.962Z,0
2017-09-08T19:39:01.979Z,0
2017-09-08T19:40:10.993Z,0
2017-09-08T19:41:20.009Z,0
2017-09-08T19:42:29.347Z,0
2017-09-08T19:43:39.003Z,0
2017-09-08T19:44:48.337Z,0
2017-09-08T19:45:57.033Z,0
2017-09-08T19:47:06.052Z,0
2017-09-08T19:48:15.069Z,0
2017-09-08T19:49:24.403Z,0
2017-09-08T19:50:33.742Z,0
2017-09-08T19:51:43.402Z,0
2017-09-08T19:52:52.417Z,0
2017-09-08T19:54:01.438Z,0
2017-09-08T19:55:10.454Z,0
2017-09-08T19:56:19.790Z,0
2017-09-08T19:57:29.128Z,0
2017-09-08T19:58:38.144Z,0
2017-09-08T19:59:47.159Z,0
2017-09-08T20:00:55.858Z,0
2017-09-08T20:02:05.192Z,0
2017-09-08T20:03:14.206Z,0
2017-09-08T20:04:23.222Z,0
2017-09-08T20:05:31.919Z,0
2017-09-08T20:06:41.893Z,0
2017-09-08T20:07:51.228Z,0
2017-09-08T20:09:00.561Z,0
2017-09-08T20:10:09.256Z,0
2017-09-08T20:11:18.274Z,0
2017-09-08T20:12:27.613Z,0
2017-09-08T20:13:36.629Z,0
2017-09-08T20:14:45.324Z,0
2017-09-08T20:15:54.020Z,0
2017-09-08T20:17:03.033Z,0
2017-09-08T20:18:12.687Z,0
2017-09-08T20:19:21.382Z,0
2017-09-08T20:20:30.397Z,0
2017-09-08T20:21:39.418Z,0
2017-09-08T20:22:48.115Z,0
2017-09-08T20:23:56.816Z,0
2017-09-08T20:25:06.153Z,0
2017-09-08T20:26:15.806Z,0
2017-09-08T20:27:24.826Z,0
2017-09-08T20:28:33.841Z,0
2017-09-08T20:29:42.858Z,0
2017-09-08T20:30:51.554Z,0
2017-09-08T20:32:00.253Z,0
2017-09-08T20:33:09.303Z,0
2017-09-08T20:34:18.961Z,0
2017-09-08T20:35:27.979Z,0
2017-09-08T20:36:36.997Z,0
2017-09-08T20:37:46.332Z,0
2017-09-08T20:38:55.667Z,0
2017-09-08T20:40:05.000Z,0
2017-09-08T20:41:13.696Z,0
2017-09-08T20:42:22.394Z,0
2017-09-08T20:43:32.049Z,0
2017-09-08T20:44:41.384Z,0
2017-09-08T20:45:50.401Z,0
2017-09-08T20:46:59.419Z,0
2017-09-08T20:48:08.758Z,0
2017-09-08T20:49:17.454Z,0
2017-09-08T20:50:26.468Z,0
2017-09-08T20:51:35.488Z,0
2017-09-08T20:52:44.504Z,0
2017-09-08T20:53:53.518Z,0
2017-09-08T20:55:02.852Z,0
2017-09-08T20:56:12.511Z,0
2017-09-08T20:57:21.849Z,0
2017-09-08T20:58:31.184Z,0
2017-09-08T20:59:40.198Z,0
2017-09-08T21:00:49.217Z,0
2017-09-08T21:01:58.232Z,0
2017-09-08T21:03:07.568Z,0
2017-09-08T21:04:16.584Z,0
2017-09-08T21:05:25.278Z,0
2017-09-08T21:06:33.977Z,0
2017-09-08T21:07:43.312Z,0
2017-09-08T21:08:52.649Z,0
2017-09-08T21:10:01.665Z,0
2017-09-08T21:11:11.322Z,0
2017-09-08T21:12:20.337Z,0
2017-09-08T21:13:29.358Z,0
2017-09-08T21:14:39.014Z,0
2017-09-08T21:15:48.349Z,0
2017-09-08T21:16:57.045Z,0
2017-09-08T21:18:06.386Z,0
2017-09-08T21:19:15.726Z,0
2017-09-08T21:20:24.741Z,0
2017-09-08T21:21:33.753Z,0
2017-09-08T21:22:43.089Z,0
2017-09-08T21:23:51.784Z,0
2017-09-08T21:25:00.800Z,0
2017-09-08T21:26:09.817Z,0
2017-09-08T21:27:18.835Z,0
2017-09-08T21:28:27.852Z,0
2017-09-08T21:29:36.870Z,0
2017-09-08T21:30:46.205Z,0
2017-09-08T21:31:55.219Z,0
2017-09-08T21:33:03.914Z,0
2017-09-08T21:34:13.252Z,0
2017-09-08T21:35:21.947Z,0
2017-09-08T21:36:30.642Z,0
2017-09-08T21:37:39.658Z,0
2017-09-08T21:38:48.675Z,0
2017-09-08T21:39:57.693Z,0
2017-09-08T21:41:06.716Z,0
2017-09-08T21:42:15.758Z,0
2017-09-08T21:43:24.784Z,0
2017-09-08T21:44:33.799Z,0
2017-09-08T21:45:43.135Z,0
2017-09-08T21:46:52.154Z,0
2017-09-08T21:48:00.848Z,0
2017-09-08T21:49:09.541Z,0
2017-09-08T21:50:18.556Z,0
2017-09-08T21:51:28.223Z,0
2017-09-08T21:52:37.241Z,0
2017-09-08T21:53:46.896Z,0
2017-09-08T21:54:55.910Z,0
2017-09-08T21:56:05.244Z,0
2017-09-08T21:57:13.939Z,0
2017-09-08T21:58:23.277Z,0
2017-09-08T21:59:31.971Z,0
2017-09-08T22:00:41.309Z,0
2017-09-08T22:01:50.003Z,0
2017-09-08T22:02:58.700Z,0
2017-09-08T22:04:07.717Z,0
2017-09-08T22:05:17.057Z,0
2017-09-08T22:06:25.754Z,0
2017-09-08T22:07:34.772Z,0
2017-09-08T22:08:43.469Z,0
2017-09-08T22:09:52.802Z,0
2017-09-08T22:11:02.137Z,0
2017-09-08T22:12:11.792Z,0
2017-09-08T22:13:20.809Z,0
2017-09-08T22:14:30.040Z,0
2017-09-08T22:15:39.325Z,0
2017-09-08T22:16:48.339Z,0
2017-09-08T22:17:57.355Z,0
2017-09-08T22:19:06.049Z,0
2017-09-08T22:20:15.067Z,0
2017-09-08T22:21:24.401Z,0
2017-09-08T22:22:33.419Z,0
2017-09-08T22:23:42.754Z,0
2017-09-08T22:24:52.409Z,0
2017-09-08T22:26:01.426Z,0
2017-09-08T22:27:10.443Z,0
2017-09-08T22:28:19.139Z,0
2017-09-08T22:29:28.793Z,0
2017-09-08T22:30:37.491Z,0
2017-09-08T22:31:46.507Z,0
2017-09-08T22:32:55.203Z,0
2017-09-08T22:34:04.220Z,0
2017-09-08T22:35:13.876Z,0
2017-09-08T22:36:22.893Z,0